Time;durP1;ratioP1;P1;durP2;ratioP2;P2;SDS_P1;SDS_P2;PMS_P1;PMS_P2;Temp;Humidity;BMP_temperature;BMP_pressure;BME280_temperature;BME280_humidity;BME280_pressure;Samples;Min_cycle;Max_cycle;Signal;HPM_P1;HPM_P2
2022/06/01 00:00:34;;;;;;;;;;;;;;;13.53;50.48;101033.88;7353584;19;19922;-62
2022/06/01 00:02:59;;;;;;;;;;;;;;;13.53;50.70;101033.88;7354563;19;19930;-62
2022/06/01 00:05:25;;;;;;;;;;;;;;;13.52;50.63;101033.03;7351646;19;19939;-62
2022/06/01 00:07:51;;;;;;;;;;;;;;;13.50;50.62;101034.84;7353089;19;19976;-62
2022/06/01 00:10:17;;;;;;;;;;;;;;;13.47;51.29;101035.78;7351960;19;19926;-62
2022/06/01 00:12:42;;;;;;;;;;;;;;;13.46;51.77;101033.22;7354745;19;19951;-62
2022/06/01 00:15:08;;;;;;;;;;;;;;;13.46;51.55;101030.59;7349345;19;19927;-62
2022/06/01 00:17:34;;;;;;;;;;;;;;;13.45;52.02;101036.75;7354199;19;19971;-62
2022/06/01 00:19:59;;;;;;;;;;;;;;;13.46;52.04;101034.06;7352681;19;20273;-62
2022/06/01 00:22:24;;;;;;;;;;;;;;;13.48;51.71;101037.53;7353347;19;19926;-62
2022/06/01 00:24:50;;;;;;;;;;;;;;;13.49;52.00;101039.25;7351022;19;20614;-63
2022/06/01 00:27:16;;;;;;;;;;;;;;;13.50;52.16;101034.84;7353367;19;20031;-62
2022/06/01 00:29:41;;;;;;;;;;;;;;;13.53;52.70;101034.75;7350679;19;19915;-63
2022/06/01 00:32:08;;;;;;;;;;;;;;;13.54;52.58;101039.13;7352520;19;20710;-62
2022/06/01 00:34:33;;;;;;;;;;;;;;;13.57;52.04;101033.75;7350977;19;20366;-62
2022/06/01 00:36:59;;;;;;;;;;;;;;;13.58;51.78;101038.09;7353067;19;19918;-62
2022/06/01 00:39:24;;;;;;;;;;;;;;;13.59;52.23;101034.59;7353598;19;19926;-62
2022/06/01 00:41:49;;;;;;;;;;;;;;;13.59;52.58;101038.97;7351314;19;19994;-62
2022/06/01 00:44:15;;;;;;;;;;;;;;;13.59;52.62;101039.84;7352229;19;20034;-63
2022/06/01 00:46:40;;;;;;;;;;;;;;;13.60;52.37;101036.31;7350008;19;20717;-62
2022/06/01 00:49:17;;;;;;;;;;;;;;;13.61;52.76;101038.00;7353592;19;19926;-62
2022/06/01 00:51:43;;;;;;;;;;;;;;;13.61;51.97;101043.25;7350583;19;20022;-62
2022/06/01 00:54:09;;;;;;;;;;;;;;;13.60;52.76;101046.81;7352091;19;20375;-62
2022/06/01 00:56:37;;;;;;;;;;;;;;;13.61;52.88;101043.25;7351506;19;19922;-62
2022/06/01 00:59:05;;;;;;;;;;;;;;;13.59;52.70;101039.84;7353807;19;20389;-62
2022/06/01 01:01:30;;;;;;;;;;;;;;;13.60;52.81;101044.19;7352816;19;19922;-62
2022/06/01 01:03:57;;;;;;;;;;;;;;;13.59;53.00;101034.59;7349646;19;19915;-63
2022/06/01 01:06:24;;;;;;;;;;;;;;;13.59;52.74;101045.09;7353312;19;19926;-62
2022/06/01 01:08:49;;;;;;;;;;;;;;;13.60;52.85;101041.56;7352125;19;19990;-62
2022/06/01 01:11:18;;;;;;;;;;;;;;;13.59;52.71;101039.84;7349658;19;19951;-62
2022/06/01 01:13:46;;;;;;;;;;;;;;;13.58;52.79;101043.34;7350045;19;19907;-62
2022/06/01 01:16:12;;;;;;;;;;;;;;;13.57;52.46;101046.88;7351719;19;19929;-62
2022/06/01 01:18:40;;;;;;;;;;;;;;;13.55;53.01;101043.44;7350156;19;19911;-62
2022/06/01 01:21:08;;;;;;;;;;;;;;;13.54;53.13;101041.75;7352078;19;19915;-62
2022/06/01 01:23:40;;;;;;;;;;;;;;;13.52;53.05;101048.78;7350552;19;19947;-62
2022/06/01 01:26:06;;;;;;;;;;;;;;;13.50;53.28;101045.34;7353327;19;19914;-62
2022/06/01 01:28:31;;;;;;;;;;;;;;;13.49;53.31;101043.63;7354288;19;20764;-62
2022/06/01 01:31:00;;;;;;;;;;;;;;;13.47;53.04;101040.19;7357301;19;19919;-62
2022/06/01 01:33:28;;;;;;;;;;;;;;;13.47;52.72;101045.44;7357932;19;19949;-63
2022/06/01 01:35:55;;;;;;;;;;;;;;;13.44;53.09;101050.78;7358281;19;19946;-62
2022/06/01 01:38:22;;;;;;;;;;;;;;;13.41;53.04;101050.84;7356753;19;19942;-62
2022/06/01 01:40:57;;;;;;;;;;;;;;;13.40;53.20;101052.63;7358924;19;19938;-62
2022/06/01 01:43:23;;;;;;;;;;;;;;;13.37;53.08;101051.84;7358687;19;19937;-63
2022/06/01 01:45:49;;;;;;;;;;;;;;;13.37;52.99;101049.22;7356195;19;19922;-62
2022/06/01 01:48:14;;;;;;;;;;;;;;;13.36;53.24;101052.75;7358518;19;19976;-62
2022/06/01 01:50:39;;;;;;;;;;;;;;;13.34;53.10;101054.56;7356039;19;19970;-62
2022/06/01 01:53:04;;;;;;;;;;;;;;;13.32;53.03;101051.13;7357965;19;19964;-62
2022/06/01 01:55:34;;;;;;;;;;;;;;;13.31;52.81;101052.03;7357832;19;19917;-62
2022/06/01 01:58:08;;;;;;;;;;;;;;;13.29;53.26;101061.72;7351477;19;20675;-62
2022/06/01 02:00:36;;;;;;;;;;;;;;;13.27;52.68;101058.25;7367808;19;20255;-62
2022/06/01 02:03:13;;;;;;;;;;;;;;;13.27;53.27;101060.88;7368094;19;20687;-62
2022/06/01 02:08:30;;;;;;;;;;;;;;;13.24;52.44;101064.47;7366845;19;19932;-62
2022/06/01 02:14:20;;;;;;;;;;;;;;;13.19;52.82;101059.31;7264934;19;2004304;-62
2022/06/01 02:16:47;;;;;;;;;;;;;;;13.17;52.62;101058.47;7366064;19;19935;-62
2022/06/01 02:19:15;;;;;;;;;;;;;;;13.12;53.41;101054.25;7366482;19;19922;-62
2022/06/01 02:21:40;;;;;;;;;;;;;;;13.15;52.96;101065.53;7364603;19;20608;-62
2022/06/01 02:24:06;;;;;;;;;;;;;;;13.14;53.23;101063.81;7368461;19;19922;-62
2022/06/01 02:26:32;;;;;;;;;;;;;;;13.15;53.76;101068.16;7365208;19;19929;-62
2022/06/01 02:29:08;;;;;;;;;;;;;;;13.14;52.63;101053.34;7367250;19;19974;-62
2022/06/01 02:31:35;;;;;;;;;;;;;;;13.14;53.24;101058.56;7365088;19;20738;-63
2022/06/01 02:34:03;;;;;;;;;;;;;;;13.13;53.06;101062.09;7367160;19;20355;-62
2022/06/01 02:36:30;;;;;;;;;;;;;;;13.12;53.27;101062.97;7363871;19;20423;-62
2022/06/01 02:38:57;;;;;;;;;;;;;;;13.13;53.37;101066.50;7366778;19;20610;-62
2022/06/01 02:44:07;;;;;;;;;;;;;;;13.12;53.69;101059.50;7365445;19;19948;-62
2022/06/01 02:46:32;;;;;;;;;;;;;;;13.12;53.47;101064.75;7369278;19;19922;-62
2022/06/01 02:48:58;;;;;;;;;;;;;;;13.11;53.40;101063.88;7367465;19;19918;-62
2022/06/01 02:51:24;;;;;;;;;;;;;;;13.11;52.82;101063.03;7367956;19;19930;-63
2022/06/01 02:53:49;;;;;;;;;;;;;;;13.09;53.13;101062.22;7365909;19;19926;-63
2022/06/01 02:56:15;;;;;;;;;;;;;;;13.05;53.06;101058.81;7368521;19;19923;-62
2022/06/01 02:58:40;;;;;;;;;;;;;;;13.04;53.19;101066.72;7366498;19;19915;-62
2022/06/01 03:01:06;;;;;;;;;;;;;;;13.02;53.55;101069.38;7365558;19;20629;-62
2022/06/01 03:03:32;;;;;;;;;;;;;;;12.98;53.47;101066.00;7365935;19;19931;-62
2022/06/01 03:05:58;;;;;;;;;;;;;;;12.95;53.61;101067.84;7356884;19;19914;-62
2022/06/01 03:08:23;;;;;;;;;;;;;;;12.92;53.75;101063.53;7367248;19;20352;-62
2022/06/01 03:10:48;;;;;;;;;;;;;;;12.90;53.51;101064.47;7361338;19;20690;-62
2022/06/01 03:13:14;;;;;;;;;;;;;;;12.88;53.52;101067.16;7367542;19;19926;-62
2022/06/01 03:15:40;;;;;;;;;;;;;;;12.87;53.43;101067.16;7368194;19;19919;-63
2022/06/01 03:18:05;;;;;;;;;;;;;;;12.85;53.31;101063.75;7356557;19;19923;-62
2022/06/01 03:20:33;;;;;;;;;;;;;;;12.84;53.63;101065.50;7367970;19;20002;-62
2022/06/01 03:22:59;;;;;;;;;;;;;;;12.82;53.85;101072.53;7363396;19;20665;-61
2022/06/01 03:25:24;;;;;;;;;;;;;;;12.82;53.36;101076.91;7368378;19;19927;-63
2022/06/01 03:27:53;;;;;;;;;;;;;;;12.81;53.57;101077.81;7368089;19;19926;-62
2022/06/01 03:30:19;;;;;;;;;;;;;;;12.80;53.02;101078.72;7364581;19;20336;-62
2022/06/01 03:32:45;;;;;;;;;;;;;;;12.79;53.64;101079.63;7367235;19;20034;-62
2022/06/01 03:35:11;;;;;;;;;;;;;;;12.77;53.90;101074.41;7367865;19;20403;-62
2022/06/01 03:37:36;;;;;;;;;;;;;;;12.76;54.00;101079.69;7366550;19;19939;-62
2022/06/01 03:40:02;;;;;;;;;;;;;;;12.75;54.11;101077.97;7368003;19;19922;-62
2022/06/01 03:42:30;;;;;;;;;;;;;;;12.75;53.61;101084.06;7368424;19;19923;-62
2022/06/01 03:47:39;;;;;;;;;;;;;;;12.74;53.79;101082.38;7366299;19;19930;-62
2022/06/01 03:50:05;;;;;;;;;;;;;;;12.70;53.46;101085.94;7367576;19;19919;-62
2022/06/01 03:52:30;;;;;;;;;;;;;;;12.73;53.39;101089.38;7366365;19;19925;-62
2022/06/01 03:54:55;;;;;;;;;;;;;;;12.73;53.44;101089.38;7368082;19;19918;-62
2022/06/01 03:57:21;;;;;;;;;;;;;;;12.71;54.03;101083.28;7366698;19;19999;-62
2022/06/01 03:59:46;;;;;;;;;;;;;;;12.69;54.39;101087.72;7368532;19;19935;-62
2022/06/01 04:02:12;;;;;;;;;;;;;;;12.67;53.83;101083.41;7366471;19;19922;-62
2022/06/01 04:04:37;;;;;;;;;;;;;;;12.64;53.66;101092.22;7367775;19;20001;-62
2022/06/01 04:07:03;;;;;;;;;;;;;;;12.59;53.64;101095.84;7365496;19;19961;-62
2022/06/01 04:09:29;;;;;;;;;;;;;;;12.54;54.04;101095.09;7366461;19;19919;-62
2022/06/01 04:11:54;;;;;;;;;;;;;;;12.47;53.46;101099.63;7363572;19;20476;-62
2022/06/01 04:14:19;;;;;;;;;;;;;;;12.39;54.11;101098.94;7367764;19;20391;-61
2022/06/01 04:16:46;;;;;;;;;;;;;;;12.32;54.13;101103.47;7365502;19;19951;-62
2022/06/01 04:19:11;;;;;;;;;;;;;;;12.26;54.17;101107.97;7368740;19;20022;-62
2022/06/01 04:21:41;;;;;;;;;;;;;;;12.19;54.39;101102.88;7363150;19;19923;-62
2022/06/01 04:24:10;;;;;;;;;;;;;;;12.13;54.72;101103.03;7364890;19;19990;-62
2022/06/01 04:26:35;;;;;;;;;;;;;;;12.07;54.36;101097.94;7364564;19;19975;-62
2022/06/01 04:29:00;;;;;;;;;;;;;;;12.01;54.46;101100.66;7367437;19;19986;-62
2022/06/01 04:31:26;;;;;;;;;;;;;;;11.97;54.22;101100.81;7364449;19;19915;-62
2022/06/01 04:33:51;;;;;;;;;;;;;;;11.91;54.47;101107.91;7367529;19;19948;-62
2022/06/01 04:36:16;;;;;;;;;;;;;;;11.86;54.73;101106.25;7364218;19;19981;-62
2022/06/01 04:38:41;;;;;;;;;;;;;;;11.81;54.25;101105.44;7365548;19;19942;-62
2022/06/01 04:41:07;;;;;;;;;;;;;;;11.75;54.38;101102.97;7364804;19;19926;-62
2022/06/01 04:43:32;;;;;;;;;;;;;;;11.69;54.63;101107.44;7365890;19;19923;-62
2022/06/01 04:45:58;;;;;;;;;;;;;;;11.65;54.51;101102.28;7364951;19;20624;-62
2022/06/01 04:48:24;;;;;;;;;;;;;;;11.60;53.98;101099.78;7365075;19;19930;-62
2022/06/01 04:50:50;;;;;;;;;;;;;;;11.57;54.16;101101.59;7362537;19;19923;-62
2022/06/01 04:53:16;;;;;;;;;;;;;;;11.53;53.88;101110.41;7363276;19;19917;-62
2022/06/01 04:55:43;;;;;;;;;;;;;;;11.48;54.12;101118.34;7362737;19;19927;-62
2022/06/01 04:58:08;;;;;;;;;;;;;;;11.44;54.40;101121.91;7365863;19;19918;-61
2022/06/01 05:00:34;;;;;;;;;;;;;;;11.39;54.80;101113.28;7364502;19;19940;-62
2022/06/01 05:02:59;;;;;;;;;;;;;;;11.36;54.47;101110.75;7369687;19;19926;-62
2022/06/01 05:05:24;;;;;;;;;;;;;;;11.34;54.56;101115.13;7371221;19;20681;-63
2022/06/01 05:07:50;;;;;;;;;;;;;;;11.31;54.35;101121.28;7372758;19;19927;-62
2022/06/01 05:10:15;;;;;;;;;;;;;;;11.28;54.62;101110.88;7370508;19;19922;-62
2022/06/01 05:12:40;;;;;;;;;;;;;;;11.26;54.81;101112.66;7372740;19;19986;-62
2022/06/01 05:15:06;;;;;;;;;;;;;;;11.25;54.73;101115.28;7371188;19;19952;-62
2022/06/01 05:17:32;;;;;;;;;;;;;;;11.25;54.62;101112.69;7373092;19;19930;-62
2022/06/01 05:19:57;;;;;;;;;;;;;;;11.23;55.16;101112.72;7367489;19;19952;-62
2022/06/01 05:22:22;;;;;;;;;;;;;;;11.25;55.41;101120.53;7371569;19;19924;-61
2022/06/01 05:24:47;;;;;;;;;;;;;;;11.24;54.83;101118.81;7371111;19;20643;-62
2022/06/01 05:27:13;;;;;;;;;;;;;;;11.25;55.45;101123.13;7370889;19;19925;-62
2022/06/01 05:29:38;;;;;;;;;;;;;;;11.26;55.19;101127.50;7370072;19;19966;-62
2022/06/01 05:32:03;;;;;;;;;;;;;;;11.26;55.12;101125.75;7370952;19;19929;-62
2022/06/01 05:34:29;;;;;;;;;;;;;;;11.28;55.50;101130.94;7367043;19;19922;-62
2022/06/01 05:36:54;;;;;;;;;;;;;;;11.30;55.18;101134.38;7370829;19;19919;-62
2022/06/01 05:39:19;;;;;;;;;;;;;;;11.30;55.27;101129.13;7372099;19;19945;-62
2022/06/01 05:41:44;;;;;;;;;;;;;;;11.32;55.62;101140.44;7368625;19;20262;-62
2022/06/01 05:44:10;;;;;;;;;;;;;;;11.34;55.12;101141.28;7370472;19;20427;-62
2022/06/01 05:46:35;;;;;;;;;;;;;;;11.35;55.30;101143.00;7367316;19;19940;-62
2022/06/01 05:49:03;;;;;;;;;;;;;;;11.37;55.39;101142.09;7372081;19;19915;-62
2022/06/01 05:51:29;;;;;;;;;;;;;;;11.39;55.69;101144.66;7368404;19;19922;-62
2022/06/01 05:53:54;;;;;;;;;;;;;;;11.42;55.48;101144.63;7369613;19;19926;-63
2022/06/01 05:56:19;;;;;;;;;;;;;;;11.44;55.28;101153.28;7368459;19;19919;-62
2022/06/01 05:58:45;;;;;;;;;;;;;;;11.45;55.28;101152.38;7364419;19;19930;-63
2022/06/01 06:01:11;;;;;;;;;;;;;;;11.49;55.31;101153.19;7368103;19;19986;-62
2022/06/01 06:03:36;;;;;;;;;;;;;;;11.52;55.79;101150.53;7370292;19;20313;-63
2022/06/01 06:06:17;;;;;;;;;;;;;;;11.55;55.50;101155.69;7365491;19;19925;-62
2022/06/01 06:09:00;;;;;;;;;;;;;;;11.58;55.55;101156.50;7366754;19;20328;-62
2022/06/01 06:11:27;;;;;;;;;;;;;;;11.61;55.60;101156.44;7367692;19;19918;-63
2022/06/01 06:13:52;;;;;;;;;;;;;;;11.64;55.19;101160.75;7364323;19;19934;-62
2022/06/01 06:16:17;;;;;;;;;;;;;;;11.66;55.79;101159.84;7369634;19;19923;-62
2022/06/01 06:18:44;;;;;;;;;;;;;;;11.71;55.25;101162.38;7368369;19;19961;-62
2022/06/01 06:21:09;;;;;;;;;;;;;;;11.73;55.73;101168.41;7368819;19;19929;-62
2022/06/01 06:23:35;;;;;;;;;;;;;;;11.75;55.45;101163.13;7367688;19;20249;-62
2022/06/01 06:26:00;;;;;;;;;;;;;;;11.80;54.98;101175.22;7368567;19;19923;-62
2022/06/01 06:28:25;;;;;;;;;;;;;;;11.84;55.56;101181.31;7367922;19;19957;-62
2022/06/01 06:30:51;;;;;;;;;;;;;;;11.86;55.73;101182.13;7367820;19;19925;-61
2022/06/01 06:33:17;;;;;;;;;;;;;;;11.89;55.75;101182.09;7368237;19;19947;-61
2022/06/01 06:35:42;;;;;;;;;;;;;;;11.91;55.67;101180.28;7365470;19;19935;-62
2022/06/01 06:38:07;;;;;;;;;;;;;;;11.95;55.95;101179.31;7359694;19;19947;-61
2022/06/01 06:40:32;;;;;;;;;;;;;;;11.98;56.01;101179.28;7360284;19;20364;-61
2022/06/01 06:42:58;;;;;;;;;;;;;;;12.03;55.79;101184.41;7369182;19;20592;-61
2022/06/01 06:45:23;;;;;;;;;;;;;;;12.06;56.10;101182.56;7367950;19;19923;-61
2022/06/01 06:47:48;;;;;;;;;;;;;;;12.11;55.79;101183.34;7369650;19;19946;-61
2022/06/01 06:50:14;;;;;;;;;;;;;;;12.17;55.84;101187.63;7365915;19;19923;-62
2022/06/01 06:52:40;;;;;;;;;;;;;;;12.20;56.01;101188.38;7366637;19;20551;-61
2022/06/01 06:55:06;;;;;;;;;;;;;;;12.25;55.75;101198.75;7365551;19;20016;-61
2022/06/01 06:57:31;;;;;;;;;;;;;;;12.28;55.91;101200.47;7368592;19;19942;-61
2022/06/01 06:59:56;;;;;;;;;;;;;;;12.31;55.74;101203.88;7365681;19;19926;-61
2022/06/01 07:02:22;;;;;;;;;;;;;;;12.34;55.99;101211.66;7369443;19;19943;-61
2022/06/01 07:04:47;;;;;;;;;;;;;;;12.37;55.64;101206.38;7366793;19;19934;-61
2022/06/01 07:07:15;;;;;;;;;;;;;;;12.40;55.89;101213.28;7365681;19;19930;-61
2022/06/01 07:09:41;;;;;;;;;;;;;;;12.43;55.92;101215.84;7365471;19;19918;-61
2022/06/01 07:12:06;;;;;;;;;;;;;;;12.46;55.99;101213.13;7359279;19;19922;-61
2022/06/01 07:14:32;;;;;;;;;;;;;;;12.50;56.39;101217.41;7366151;19;19927;-61
2022/06/01 07:17:00;;;;;;;;;;;;;;;12.55;55.65;101215.56;7369407;19;19974;-61
2022/06/01 07:19:26;;;;;;;;;;;;;;;12.61;55.88;101214.56;7365657;19;20453;-61
2022/06/01 07:21:51;;;;;;;;;;;;;;;12.67;56.26;101217.03;7365586;19;19918;-61
2022/06/01 07:24:16;;;;;;;;;;;;;;;12.72;55.65;101216.06;7365363;19;19941;-61
2022/06/01 07:26:43;;;;;;;;;;;;;;;12.79;55.93;101229.88;7363414;19;20271;-61
2022/06/01 07:29:09;;;;;;;;;;;;;;;12.84;56.11;101227.13;7366046;19;20545;-61
2022/06/01 07:31:34;;;;;;;;;;;;;;;12.90;56.42;101227.00;7365833;19;19922;-62
2022/06/01 07:33:59;;;;;;;;;;;;;;;12.96;56.04;101232.06;7368323;19;20286;-61
2022/06/01 07:36:25;;;;;;;;;;;;;;;13.01;55.82;101231.97;7365522;19;19919;-61
2022/06/01 07:44:19;;;;;;;;;;;;;;;13.19;56.30;101235.00;7368873;19;19969;-61
2022/06/01 07:46:45;;;;;;;;;;;;;;;13.28;55.88;101239.22;7367249;19;20805;-61
2022/06/01 07:49:10;;;;;;;;;;;;;;;13.39;55.93;101252.03;7367251;19;19918;-61
2022/06/01 07:51:36;;;;;;;;;;;;;;;13.50;56.22;101239.50;7366346;19;21363;-61
2022/06/01 07:54:01;;;;;;;;;;;;;;;13.64;55.90;101247.88;7365151;19;19910;-62
2022/06/01 07:56:26;;;;;;;;;;;;;;;13.79;56.01;101250.97;7366930;19;19986;-62
2022/06/01 07:58:52;;;;;;;;;;;;;;;13.92;55.98;101245.34;7358249;19;20829;-61
2022/06/01 08:01:21;;;;;;;;;;;;;;;14.07;55.69;101251.94;7368714;19;19980;-61
2022/06/01 08:03:46;;;;;;;;;;;;;;;14.21;56.04;101249.78;7364125;19;19922;-62
2022/06/01 08:06:11;;;;;;;;;;;;;;;14.33;55.56;101243.31;7368848;19;20490;-61
2022/06/01 08:08:37;;;;;;;;;;;;;;;14.46;55.96;101249.06;7366674;19;19951;-62
2022/06/01 08:11:02;;;;;;;;;;;;;;;14.57;55.70;101251.41;7367408;19;20006;-61
2022/06/01 08:13:27;;;;;;;;;;;;;;;14.65;55.63;101254.63;7365107;19;19918;-61
2022/06/01 08:15:55;;;;;;;;;;;;;;;14.75;55.52;101256.06;7367326;19;19926;-62
2022/06/01 08:18:22;;;;;;;;;;;;;;;14.85;55.30;101260.16;7365029;19;19914;-62
2022/06/01 08:20:48;;;;;;;;;;;;;;;14.94;55.27;101256.38;7358764;19;19943;-61
2022/06/01 08:23:13;;;;;;;;;;;;;;;15.01;55.30;101258.75;7344247;19;19934;-62
2022/06/01 08:25:40;;;;;;;;;;;;;;;15.09;55.54;101261.13;7337274;19;19952;-61
2022/06/01 08:28:06;;;;;;;;;;;;;;;15.17;55.21;101269.66;7362085;19;20414;-60
2022/06/01 08:30:33;;;;;;;;;;;;;;;15.25;54.96;101267.59;7358374;19;19998;-61
2022/06/01 08:32:59;;;;;;;;;;;;;;;15.30;54.96;101270.94;7358516;19;20364;-61
2022/06/01 08:35:33;;;;;;;;;;;;;;;15.38;54.75;101275.97;7359344;19;19926;-61
2022/06/01 08:37:58;;;;;;;;;;;;;;;15.42;54.78;101276.72;7360710;19;19974;-61
2022/06/01 08:40:26;;;;;;;;;;;;;;;15.46;54.77;101273.06;7361012;19;22203;-61
2022/06/01 08:43:01;;;;;;;;;;;;;;;15.47;54.73;101266.91;7359331;19;20010;-60
2022/06/01 08:45:27;;;;;;;;;;;;;;;15.56;54.52;101270.09;7360342;19;20549;-60
2022/06/01 08:47:53;;;;;;;;;;;;;;;15.64;54.64;101269.84;7362172;19;20751;-61
2022/06/01 08:50:29;;;;;;;;;;;;;;;15.72;54.62;101272.22;7362007;19;20277;-60
2022/06/01 08:52:56;;;;;;;;;;;;;;;15.81;54.57;101272.75;7361829;19;19923;-61
2022/06/01 08:55:22;;;;;;;;;;;;;;;15.91;54.47;101278.53;7360015;19;19938;-61
2022/06/01 08:57:55;;;;;;;;;;;;;;;16.00;54.74;101277.34;7366007;19;19922;-61
2022/06/01 09:00:21;;;;;;;;;;;;;;;16.10;54.68;101268.22;7365876;19;19947;-60
2022/06/01 09:02:58;;;;;;;;;;;;;;;16.18;54.88;101271.44;7366654;19;19927;-61
2022/06/01 09:05:38;;;;;;;;;;;;;;;16.24;54.57;101268.56;7362529;19;19946;-61
2022/06/01 09:08:10;;;;;;;;;;;;;;;16.40;54.36;101287.31;7366630;19;20005;-61
2022/06/01 09:10:39;;;;;;;;;;;;;;;16.50;54.22;101277.28;7365222;19;19922;-61
2022/06/01 09:13:09;;;;;;;;;;;;;;;16.61;54.63;101285.63;7364260;19;20544;-61
2022/06/01 09:15:43;;;;;;;;;;;;;;;16.73;54.30;101285.19;7362768;19;19919;-61
2022/06/01 09:18:09;;;;;;;;;;;;;;;16.88;54.09;101277.56;7362509;19;19927;-60
2022/06/01 09:23:18;;;;;;;;;;;;;;;17.17;54.33;101279.91;7365105;19;19935;-61
2022/06/01 09:25:50;;;;;;;;;;;;;;;17.36;53.79;101280.88;7364616;19;19918;-61
2022/06/01 09:28:23;;;;;;;;;;;;;;;17.55;53.74;101280.97;7364971;19;19923;-61
2022/06/01 09:31:02;;;;;;;;;;;;;;;17.72;53.22;101284.66;7366838;19;19925;-61
2022/06/01 09:33:28;;;;;;;;;;;;;;;17.85;53.13;101284.09;7363503;19;19915;-61
2022/06/01 09:35:56;;;;;;;;;;;;;;;17.98;53.02;101283.56;7362321;19;21344;-61
2022/06/01 09:38:34;;;;;;;;;;;;;;;18.09;52.65;101282.13;7366187;19;19970;-61
2022/06/01 09:41:04;;;;;;;;;;;;;;;18.33;52.86;101280.19;7364960;19;19927;-61
2022/06/01 09:43:29;;;;;;;;;;;;;;;18.69;52.84;101276.78;7364424;19;19930;-61
2022/06/01 09:45:54;;;;;;;;;;;;;;;19.10;52.46;101277.44;7365044;19;20422;-61
2022/06/01 09:48:30;;;;;;;;;;;;;;;19.57;52.53;101278.66;7363774;19;20006;-61
2022/06/01 09:51:08;;;;;;;;;;;;;;;20.05;52.47;101271.78;7372983;19;20712;-61
2022/06/01 09:53:41;;;;;;;;;;;;;;;20.56;52.19;101275.22;7371220;19;20324;-61
2022/06/01 09:56:06;;;;;;;;;;;;;;;21.09;52.00;101279.31;7371634;19;19919;-61
2022/06/01 10:06:49;;;;;;;;;;;;;;;23.37;50.40;101287.34;7370501;19;20015;-62
2022/06/01 10:09:19;;;;;;;;;;;;;;;23.93;51.45;101285.31;7370465;19;19930;-62
2022/06/01 10:11:46;;;;;;;;;;;;;;;24.50;50.34;101290.19;7369886;19;19943;-62
2022/06/01 10:14:16;;;;;;;;;;;;;;;25.03;49.88;101282.72;7367875;19;19923;-61
2022/06/01 10:16:50;;;;;;;;;;;;;;;25.62;50.01;101276.56;7369904;19;19946;-62
2022/06/01 10:19:18;;;;;;;;;;;;;;;26.17;49.33;101279.47;7365888;19;19998;-61
2022/06/01 10:21:50;;;;;;;;;;;;;;;26.64;48.05;101273.84;7368675;19;19927;-61
2022/06/01 10:24:22;;;;;;;;;;;;;;;27.06;46.86;101286.53;7365839;19;20296;-61
2022/06/01 10:26:51;;;;;;;;;;;;;;;27.38;45.75;101286.56;7366658;19;19926;-61
2022/06/01 10:29:23;;;;;;;;;;;;;;;27.64;46.00;101290.56;7366090;19;19923;-61
2022/06/01 10:31:52;;;;;;;;;;;;;;;27.84;45.22;101291.56;7363085;19;20324;-61
2022/06/01 10:34:21;;;;;;;;;;;;;;;27.99;45.51;101292.06;7365658;19;20353;-61
2022/06/01 10:36:59;;;;;;;;;;;;;;;28.13;44.93;101283.66;7363105;19;20370;-61
2022/06/01 10:39:27;;;;;;;;;;;;;;;28.20;43.73;101275.91;7365861;19;19911;-61
2022/06/01 10:41:55;;;;;;;;;;;;;;;28.18;43.37;101283.25;7365440;19;19919;-61
2022/06/01 10:44:26;;;;;;;;;;;;;;;28.16;43.75;101285.22;7365948;19;19922;-62
2022/06/01 10:46:57;;;;;;;;;;;;;;;28.34;43.68;101288.16;7365633;19;21249;-60
2022/06/01 10:49:22;;;;;;;;;;;;;;;28.67;44.50;101285.13;7361956;19;19915;-61
2022/06/01 10:52:05;;;;;;;;;;;;;;;29.05;43.88;101288.94;7366096;19;19922;-61
2022/06/01 10:54:39;;;;;;;;;;;;;;;29.61;43.65;101290.91;7365775;19;19935;-61
2022/06/01 10:57:09;;;;;;;;;;;;;;;30.17;43.24;101292.78;7362467;19;19925;-62
2022/06/01 10:59:34;;;;;;;;;;;;;;;30.78;43.35;101290.50;7362909;19;19923;-61
2022/06/01 11:01:59;;;;;;;;;;;;;;;31.37;43.53;101297.16;7364988;19;19959;-61
2022/06/01 11:04:34;;;;;;;;;;;;;;;31.97;42.71;101294.59;7361801;19;19926;-61
2022/06/01 11:07:00;;;;;;;;;;;;;;;32.59;42.27;101297.94;7363006;19;20014;-61
2022/06/01 11:09:28;;;;;;;;;;;;;;;33.21;43.33;101300.31;7361198;19;19978;-61
2022/06/01 11:12:12;;;;;;;;;;;;;;;33.79;41.39;101304.72;7363666;19;19927;-62
2022/06/01 11:14:46;;;;;;;;;;;;;;;34.41;40.42;101304.03;7364168;19;19918;-62
2022/06/01 11:17:23;;;;;;;;;;;;;;;35.00;39.23;101301.75;7364837;19;19933;-62
2022/06/01 11:19:54;;;;;;;;;;;;;;;35.55;38.96;101298.78;7359195;19;19923;-60
2022/06/01 11:22:38;;;;;;;;;;;;;;;36.13;38.24;101307.22;7364587;19;19935;-60
2022/06/01 11:25:22;;;;;;;;;;;;;;;36.51;36.47;101315.28;7364252;19;19926;-60
2022/06/01 11:28:10;;;;;;;;;;;;;;;36.61;35.85;101294.06;7362977;19;19922;-60
2022/06/01 11:30:35;;;;;;;;;;;;;;;36.75;36.05;101306.78;7361271;19;19931;-60
2022/06/01 11:33:03;;;;;;;;;;;;;;;36.84;35.56;101305.63;7364092;19;20255;-60
2022/06/01 11:35:29;;;;;;;;;;;;;;;37.05;35.54;101303.97;7365027;19;19919;-60
2022/06/01 11:37:57;;;;;;;;;;;;;;;37.26;34.25;101304.00;7359001;19;19919;-60
2022/06/01 11:40:22;;;;;;;;;;;;;;;37.42;34.94;101308.34;7359962;19;19925;-59
2022/06/01 11:42:54;;;;;;;;;;;;;;;37.41;34.08;101306.66;7362304;19;21256;-60
2022/06/01 11:45:34;;;;;;;;;;;;;;;37.33;33.58;101304.88;7362680;19;19938;-60
2022/06/01 11:48:23;;;;;;;;;;;;;;;37.13;32.82;101304.69;7360206;19;19919;-61
2022/06/01 11:50:54;;;;;;;;;;;;;;;36.89;33.21;101295.03;7348596;19;19940;-61
2022/06/01 11:53:42;;;;;;;;;;;;;;;36.91;33.41;101310.34;7343377;19;19914;-61
2022/06/01 11:56:13;;;;;;;;;;;;;;;37.03;33.77;101314.22;7361650;19;20464;-61
2022/06/01 11:58:41;;;;;;;;;;;;;;;37.15;33.15;101307.22;7362419;19;20438;-62
2022/06/01 12:01:14;;;;;;;;;;;;;;;37.15;32.33;101312.66;7364266;19;19937;-61
2022/06/01 12:04:03;;;;;;;;;;;;;;;37.06;31.54;101313.84;7364714;19;20727;-61
2022/06/01 12:06:37;;;;;;;;;;;;;;;37.05;31.87;101312.16;7357818;19;19922;-61
2022/06/01 12:09:03;;;;;;;;;;;;;;;37.20;32.53;101314.81;7362017;19;19930;-61
2022/06/01 12:11:46;;;;;;;;;;;;;;;37.47;35.11;101318.66;7359724;19;20487;-61
2022/06/01 12:14:27;;;;;;;;;;;;;;;37.73;32.49;101315.31;7360994;19;20343;-61
2022/06/01 12:17:11;;;;;;;;;;;;;;;37.98;32.78;101313.84;7365457;19;19930;-61
2022/06/01 12:19:37;;;;;;;;;;;;;;;38.30;32.83;101309.63;7364937;19;20710;-61
2022/06/01 12:22:03;;;;;;;;;;;;;;;38.61;34.72;101319.19;7366373;19;19915;-61
2022/06/01 12:29:59;;;;;;;;;;;;;;;39.44;31.31;101315.22;7362554;19;19943;-59
2022/06/01 12:32:25;;;;;;;;;;;;;;;39.58;30.81;101321.50;7365537;19;19922;-59
2022/06/01 12:35:07;;;;;;;;;;;;;;;39.72;30.54;101314.16;7364643;19;19931;-59
2022/06/01 12:37:39;;;;;;;;;;;;;;;39.73;30.28;101315.00;7362396;19;19931;-59
2022/06/01 12:40:11;;;;;;;;;;;;;;;39.57;30.03;101308.88;7364634;19;19922;-59
2022/06/01 12:42:40;;;;;;;;;;;;;;;39.52;31.71;101313.31;7363866;19;19922;-60
2022/06/01 12:45:11;;;;;;;;;;;;;;;39.36;29.80;101318.16;7366045;19;19922;-59
2022/06/01 12:47:41;;;;;;;;;;;;;;;39.12;30.83;101321.44;7360438;19;19978;-61
2022/06/01 12:50:06;;;;;;;;;;;;;;;38.80;30.95;101318.44;7364625;19;19933;-61
2022/06/01 12:52:31;;;;;;;;;;;;;;;38.30;29.85;101323.25;7364984;19;19915;-61
2022/06/01 12:54:59;;;;;;;;;;;;;;;37.70;28.79;101318.41;7366850;19;19919;-61
2022/06/01 12:57:25;;;;;;;;;;;;;;;37.14;29.62;101338.22;7366232;19;20380;-61
2022/06/01 12:59:55;;;;;;;;;;;;;;;36.70;29.48;101331.03;7365067;19;19931;-61
2022/06/01 13:02:20;;;;;;;;;;;;;;;36.23;29.35;101339.56;7362800;19;20331;-60
2022/06/01 13:04:53;;;;;;;;;;;;;;;35.77;28.81;101337.81;7365756;19;19923;-61
2022/06/01 13:07:19;;;;;;;;;;;;;;;35.25;29.75;101341.28;7364848;19;19914;-61
2022/06/01 13:09:44;;;;;;;;;;;;;;;34.79;28.67;101341.19;7360042;19;20855;-61
2022/06/01 13:12:17;;;;;;;;;;;;;;;34.29;28.37;101341.56;7365531;19;19918;-60